sensor_id;sensor_type;location;lat;lon;timestamp;pressure;altitude;pressure_sealevel;temperature;humidity
25130;BME280;13308;50.860;13.664;2022-11-11T06:17:57;98153.78;;;8.98;90.47
25130;BME280;13308;50.860;13.664;2022-11-11T06:20:42;98155.59;;;9.16;89.30
25130;BME280;13308;50.860;13.664;2022-11-11T06:23:27;98150.16;;;9.23;88.89
25130;BME280;13308;50.860;13.664;2022-11-11T06:26:12;98162.75;;;9.24;89.15
25130;BME280;13308;50.860;13.664;2022-11-11T06:28:56;98160.66;;;9.14;89.23
25130;BME280;13308;50.860;13.664;2022-11-11T06:31:40;98158.88;;;9.32;88.42
25130;BME280;13308;50.860;13.664;2022-11-11T06:34:24;98162.81;;;9.31;88.06
25130;BME280;13308;50.860;13.664;2022-11-11T06:37:08;98153.31;;;9.25;88.34
25130;BME280;13308;50.860;13.664;2022-11-11T06:39:51;98151.91;;;9.42;88.07
25130;BME280;13308;50.860;13.664;2022-11-11T06:42:36;98152.63;;;9.35;88.26
25130;BME280;13308;50.860;13.664;2022-11-11T06:45:20;98153.53;;;9.46;87.79
25130;BME280;13308;50.860;13.664;2022-11-11T06:48:05;98166.84;;;9.41;88.15
25130;BME280;13308;50.860;13.664;2022-11-11T06:50:49;98171.78;;;9.61;88.09
25130;BME280;13308;50.860;13.664;2022-11-11T06:53:33;98179.28;;;9.64;85.93
25130;BME280;13308;50.860;13.664;2022-11-11T06:56:19;98174.28;;;9.77;84.82
25130;BME280;13308;50.860;13.664;2022-11-11T06:59:03;98169.69;;;9.91;84.73
25130;BME280;13308;50.860;13.664;2022-11-11T07:01:49;98164.16;;;9.91;84.16
25130;BME280;13308;50.860;13.664;2022-11-11T07:04:33;98163.47;;;10.01;83.72
25130;BME280;13308;50.860;13.664;2022-11-11T07:07:17;98162.72;;;10.04;83.58
25130;BME280;13308;50.860;13.664;2022-11-11T07:10:01;98160.88;;;10.19;82.78
25130;BME280;13308;50.860;13.664;2022-11-11T07:12:45;98160.78;;;10.05;83.99
25130;BME280;13308;50.860;13.664;2022-11-11T07:15:29;98166.84;;;10.24;81.88
25130;BME280;13308;50.860;13.664;2022-11-11T07:18:13;98174.72;;;10.26;82.18
25130;BME280;13308;50.860;13.664;2022-11-11T07:20:57;98170.84;;;10.34;81.43
25130;BME280;13308;50.860;13.664;2022-11-11T07:23:41;98162.13;;;10.28;82.42
25130;BME280;13308;50.860;13.664;2022-11-11T07:26:25;98156.69;;;10.39;81.49
25130;BME280;13308;50.860;13.664;2022-11-11T07:29:09;98164.69;;;10.54;80.34
25130;BME280;13308;50.860;13.664;2022-11-11T07:31:55;98160.78;;;10.62;80.30
25130;BME280;13308;50.860;13.664;2022-11-11T07:34:39;98166.31;;;10.69;80.30
25130;BME280;13308;50.860;13.664;2022-11-11T07:37:22;98171.94;;;10.83;79.52
25130;BME280;13308;50.860;13.664;2022-11-11T07:40:08;98182.53;;;10.81;79.58
25130;BME280;13308;50.860;13.664;2022-11-11T07:42:52;98185.34;;;10.88;79.09
25130;BME280;13308;50.860;13.664;2022-11-11T07:45:36;98187.00;;;11.00;77.54
25130;BME280;13308;50.860;13.664;2022-11-11T07:48:20;98190.94;;;11.02;78.06
25130;BME280;13308;50.860;13.664;2022-11-11T07:51:04;98202.84;;;11.13;76.84
25130;BME280;13308;50.860;13.664;2022-11-11T07:53:47;98203.66;;;11.24;76.93
25130;BME280;13308;50.860;13.664;2022-11-11T07:56:31;98210.81;;;11.36;75.46
25130;BME280;13308;50.860;13.664;2022-11-11T07:59:16;98213.22;;;11.55;75.45
25130;BME280;13308;50.860;13.664;2022-11-11T08:01:59;98222.00;;;11.64;74.41
25130;BME280;13308;50.860;13.664;2022-11-11T08:04:43;98227.53;;;11.85;74.11
25130;BME280;13308;50.860;13.664;2022-11-11T08:07:28;98240.22;;;12.17;71.85
25130;BME280;13308;50.860;13.664;2022-11-11T08:10:12;98249.31;;;12.07;73.50
25130;BME280;13308;50.860;13.664;2022-11-11T08:12:57;98260.41;;;12.32;73.24
25130;BME280;13308;50.860;13.664;2022-11-11T08:16:00;98265.16;;;12.38;74.17
25130;BME280;13308;50.860;13.664;2022-11-11T08:18:45;98255.28;;;12.55;72.21
25130;BME280;13308;50.860;13.664;2022-11-11T08:21:29;98263.97;;;12.71;73.08
25130;BME280;13308;50.860;13.664;2022-11-11T08:24:13;98281.34;;;12.75;71.39
25130;BME280;13308;50.860;13.664;2022-11-11T08:26:57;98268.69;;;12.95;71.33
25130;BME280;13308;50.860;13.664;2022-11-11T08:29:41;98275.34;;;13.22;70.31
25130;BME280;13308;50.860;13.664;2022-11-11T08:32:25;98273.31;;;13.43;68.89
25130;BME280;13308;50.860;13.664;2022-11-11T08:35:09;98269.88;;;13.97;66.17
25130;BME280;13308;50.860;13.664;2022-11-11T08:37:53;98282.97;;;14.00;64.01
25130;BME280;13308;50.860;13.664;2022-11-11T08:40:37;98286.50;;;14.01;62.11
25130;BME280;13308;50.860;13.664;2022-11-11T08:43:21;98285.41;;;13.84;64.60
25130;BME280;13308;50.860;13.664;2022-11-11T08:46:05;98281.16;;;13.59;66.05
25130;BME280;13308;50.860;13.664;2022-11-11T08:48:49;98280.34;;;13.65;64.84
25130;BME280;13308;50.860;13.664;2022-11-11T08:51:33;98290.78;;;13.37;60.95
25130;BME280;13308;50.860;13.664;2022-11-11T08:54:17;98281.28;;;13.24;61.86
25130;BME280;13308;50.860;13.664;2022-11-11T08:57:01;98284.47;;;13.22;64.09
25130;BME280;13308;50.860;13.664;2022-11-11T08:59:45;98289.22;;;13.25;65.61
25130;BME280;13308;50.860;13.664;2022-11-11T09:02:29;98289.97;;;13.36;63.98
25130;BME280;13308;50.860;13.664;2022-11-11T09:05:13;98286.81;;;13.34;65.67
25130;BME280;13308;50.860;13.664;2022-11-11T09:08:01;98288.41;;;13.35;64.39
25130;BME280;13308;50.860;13.664;2022-11-11T09:10:45;98287.56;;;13.42;63.23
25130;BME280;13308;50.860;13.664;2022-11-11T09:13:29;98282.06;;;13.31;63.28
25130;BME280;13308;50.860;13.664;2022-11-11T09:16:13;98296.66;;;13.46;62.67
25130;BME280;13308;50.860;13.664;2022-11-11T09:18:57;98290.75;;;13.44;63.61
25130;BME280;13308;50.860;13.664;2022-11-11T09:21:41;98291.94;;;13.39;61.54
25130;BME280;13308;50.860;13.664;2022-11-11T09:24:25;98293.09;;;13.49;62.40
25130;BME280;13308;50.860;13.664;2022-11-11T09:27:09;98293.09;;;13.52;62.94
25130;BME280;13308;50.860;13.664;2022-11-11T09:29:53;98291.44;;;13.65;60.77
25130;BME280;13308;50.860;13.664;2022-11-11T09:32:37;98285.00;;;13.89;60.73
25130;BME280;13308;50.860;13.664;2022-11-11T09:35:21;98296.03;;;14.00;59.36
25130;BME280;13308;50.860;13.664;2022-11-11T09:38:05;98297.56;;;14.11;60.77
25130;BME280;13308;50.860;13.664;2022-11-11T09:43:54;98306.84;;;14.52;59.05
25130;BME280;13308;50.860;13.664;2022-11-11T09:47:02;98320.47;;;14.80;56.57
25130;BME280;13308;50.860;13.664;2022-11-11T09:49:59;98328.72;;;15.38;55.49
25130;BME280;13308;50.860;13.664;2022-11-11T09:53:10;98316.84;;;15.68;55.64
25130;BME280;13308;50.860;13.664;2022-11-11T09:56:15;98319.41;;;15.55;55.55
25130;BME280;13308;50.860;13.664;2022-11-11T09:59:04;98319.56;;;15.41;56.79
25130;BME280;13308;50.860;13.664;2022-11-11T10:01:55;98314.31;;;15.06;56.76
25130;BME280;13308;50.860;13.664;2022-11-11T10:05:11;98319.00;;;15.13;55.30
25130;BME280;13308;50.860;13.664;2022-11-11T10:08:04;98313.78;;;14.74;56.29
25130;BME280;13308;50.860;13.664;2022-11-11T10:10:53;98308.66;;;14.69;56.06
25130;BME280;13308;50.860;13.664;2022-11-11T10:13:38;98310.63;;;14.72;56.30
25130;BME280;13308;50.860;13.664;2022-11-11T10:16:39;98306.59;;;14.80;57.14
25130;BME280;13308;50.860;13.664;2022-11-11T10:19:29;98308.22;;;14.74;55.12
25130;BME280;13308;50.860;13.664;2022-11-11T10:22:26;98306.53;;;14.87;55.15
25130;BME280;13308;50.860;13.664;2022-11-11T10:28:00;98309.88;;;14.68;55.84
25130;BME280;13308;50.860;13.664;2022-11-11T10:30:46;98313.19;;;14.49;56.05
25130;BME280;13308;50.860;13.664;2022-11-11T10:33:49;98311.53;;;14.59;55.34
25130;BME280;13308;50.860;13.664;2022-11-11T10:36:39;98303.59;;;14.57;55.64
25130;BME280;13308;50.860;13.664;2022-11-11T10:39:42;98299.41;;;14.86;55.15
25130;BME280;13308;50.860;13.664;2022-11-11T10:42:28;98308.50;;;15.31;55.01
25130;BME280;13308;50.860;13.664;2022-11-11T10:50:54;98303.19;;;16.40;54.91
25130;BME280;13308;50.860;13.664;2022-11-11T10:53:48;98289.72;;;16.62;52.24
25130;BME280;13308;50.860;13.664;2022-11-11T10:59:44;98296.25;;;16.52;52.51
25130;BME280;13308;50.860;13.664;2022-11-11T11:05:55;98301.09;;;16.18;51.98
25130;BME280;13308;50.860;13.664;2022-11-11T11:08:46;98316.31;;;15.80;53.63
25130;BME280;13308;50.860;13.664;2022-11-11T11:11:40;98313.00;;;15.58;52.86
25130;BME280;13308;50.860;13.664;2022-11-11T11:14:36;98315.41;;;15.56;53.64
25130;BME280;13308;50.860;13.664;2022-11-11T11:17:24;98307.56;;;15.48;52.71
25130;BME280;13308;50.860;13.664;2022-11-11T11:20:16;98306.84;;;15.40;53.65
25130;BME280;13308;50.860;13.664;2022-11-11T11:23:01;98306.84;;;15.40;54.12
25130;BME280;13308;50.860;13.664;2022-11-11T11:25:51;98303.47;;;15.59;52.62
25130;BME280;13308;50.860;13.664;2022-11-11T11:28:58;98302.72;;;15.55;53.17
25130;BME280;13308;50.860;13.664;2022-11-11T11:31:42;98299.16;;;15.51;52.98
25130;BME280;13308;50.860;13.664;2022-11-11T11:34:51;98305.25;;;15.73;52.74
25130;BME280;13308;50.860;13.664;2022-11-11T11:37:49;98292.94;;;16.30;50.87
25130;BME280;13308;50.860;13.664;2022-11-11T11:40:54;98308.59;;;17.00;50.48
25130;BME280;13308;50.860;13.664;2022-11-11T11:43:41;98305.56;;;16.91;49.93
25130;BME280;13308;50.860;13.664;2022-11-11T11:46:34;98300.06;;;16.88;50.53
25130;BME280;13308;50.860;13.664;2022-11-11T11:52:52;98306.19;;;17.02;50.64
25130;BME280;13308;50.860;13.664;2022-11-11T11:55:43;98295.72;;;17.06;50.87
25130;BME280;13308;50.860;13.664;2022-11-11T11:58:50;98297.13;;;17.18;50.71
25130;BME280;13308;50.860;13.664;2022-11-11T12:23:09;98283.97;;;17.80;51.37
25130;BME280;13308;50.860;13.664;2022-11-11T12:26:31;98285.81;;;17.67;50.67
25130;BME280;13308;50.860;13.664;2022-11-11T12:29:47;98275.88;;;17.66;51.64
25130;BME280;13308;50.860;13.664;2022-11-11T12:41:55;98272.66;;;17.25;52.19
25130;BME280;13308;50.860;13.664;2022-11-11T12:44:40;98263.91;;;17.04;53.35
25130;BME280;13308;50.860;13.664;2022-11-11T12:47:36;98267.84;;;17.06;51.58
25130;BME280;13308;50.860;13.664;2022-11-11T12:53:51;98276.41;;;17.19;52.33
25130;BME280;13308;50.860;13.664;2022-11-11T13:02:53;98263.13;;;18.88;48.83
25130;BME280;13308;50.860;13.664;2022-11-11T13:05:57;98259.91;;;18.57;47.49
25130;BME280;13308;50.860;13.664;2022-11-11T13:15:17;98259.94;;;17.86;50.71
25130;BME280;13308;50.860;13.664;2022-11-11T13:21:48;98257.78;;;16.89;52.36
25130;BME280;13308;50.860;13.664;2022-11-11T13:24:34;98253.38;;;16.69;52.48
25130;BME280;13308;50.860;13.664;2022-11-11T13:27:44;98252.28;;;16.40;53.46
25130;BME280;13308;50.860;13.664;2022-11-11T13:33:48;98255.69;;;15.94;55.00
25130;BME280;13308;50.860;13.664;2022-11-11T13:36:44;98257.84;;;15.83;55.07
25130;BME280;13308;50.860;13.664;2022-11-11T13:39:32;98262.38;;;15.70;56.24
25130;BME280;13308;50.860;13.664;2022-11-11T13:42:23;98259.09;;;15.45;56.53
25130;BME280;13308;50.860;13.664;2022-11-11T13:45:23;98263.22;;;15.34;58.16
25130;BME280;13308;50.860;13.664;2022-11-11T13:48:22;98255.44;;;15.18;58.39
25130;BME280;13308;50.860;13.664;2022-11-11T13:51:36;98255.28;;;14.95;58.51
25130;BME280;13308;50.860;13.664;2022-11-11T13:57:21;98251.47;;;14.75;60.33
25130;BME280;13308;50.860;13.664;2022-11-11T14:08:59;98266.59;;;14.23;67.45
25130;BME280;13308;50.860;13.664;2022-11-11T14:11:43;98264.34;;;13.97;68.83
25130;BME280;13308;50.860;13.664;2022-11-11T14:17:17;98262.56;;;13.59;70.57
25130;BME280;13308;50.860;13.664;2022-11-11T14:20:53;98265.75;;;13.54;71.06
25130;BME280;13308;50.860;13.664;2022-11-11T14:23:37;98273.31;;;13.40;71.68
25130;BME280;13308;50.860;13.664;2022-11-11T14:26:25;98281.69;;;13.29;72.88
25130;BME280;13308;50.860;13.664;2022-11-11T14:29:17;98271.81;;;13.14;73.61
25130;BME280;13308;50.860;13.664;2022-11-11T14:32:28;98277.78;;;13.09;73.83
25130;BME280;13308;50.860;13.664;2022-11-11T14:35:28;98265.91;;;12.84;76.27
25130;BME280;13308;50.860;13.664;2022-11-11T14:49:58;98258.03;;;12.44;76.52
25130;BME280;13308;50.860;13.664;2022-11-11T14:52:43;98259.63;;;12.49;75.55
25130;BME280;13308;50.860;13.664;2022-11-11T14:55:29;98254.47;;;12.47;76.13
25130;BME280;13308;50.860;13.664;2022-11-11T14:58:19;98261.59;;;12.34;77.10
25130;BME280;13308;50.860;13.664;2022-11-11T15:01:15;98259.22;;;12.26;77.91
25130;BME280;13308;50.860;13.664;2022-11-11T15:04:02;98257.59;;;12.07;78.71
25130;BME280;13308;50.860;13.664;2022-11-11T15:06:57;98257.19;;;11.91;78.52
25130;BME280;13308;50.860;13.664;2022-11-11T15:25:41;98265.47;;;11.84;78.15
25130;BME280;13308;50.860;13.664;2022-11-11T15:31:28;98281.25;;;11.80;79.09
25130;BME280;13308;50.860;13.664;2022-11-11T15:34:37;98283.59;;;11.71;79.72
25130;BME280;13308;50.860;13.664;2022-11-11T15:37:24;98268.56;;;11.69;79.36
25130;BME280;13308;50.860;13.664;2022-11-11T15:40:17;98273.31;;;11.61;79.63
25130;BME280;13308;50.860;13.664;2022-11-11T15:43:02;98274.81;;;11.55;80.17
25130;BME280;13308;50.860;13.664;2022-11-11T15:45:55;98260.94;;;11.45;81.34
25130;BME280;13308;50.860;13.664;2022-11-11T15:48:43;98270.75;;;11.32;81.58
25130;BME280;13308;50.860;13.664;2022-11-11T15:51:29;98270.75;;;11.32;80.94
25130;BME280;13308;50.860;13.664;2022-11-11T15:56:58;98268.34;;;11.23;82.11
25130;BME280;13308;50.860;13.664;2022-11-11T15:59:42;98275.41;;;11.17;81.80
25130;BME280;13308;50.860;13.664;2022-11-11T16:02:33;98267.50;;;11.12;81.82
25130;BME280;13308;50.860;13.664;2022-11-11T16:05:23;98270.66;;;11.07;82.23
25130;BME280;13308;50.860;13.664;2022-11-11T16:08:09;98266.69;;;11.01;81.72
25130;BME280;13308;50.860;13.664;2022-11-11T16:11:00;98270.56;;;10.93;81.92
25130;BME280;13308;50.860;13.664;2022-11-11T16:13:49;98277.63;;;10.91;82.87
25130;BME280;13308;50.860;13.664;2022-11-11T16:16:37;98279.16;;;10.81;83.14
25130;BME280;13308;50.860;13.664;2022-11-11T16:19:38;98283.09;;;10.80;83.39
25130;BME280;13308;50.860;13.664;2022-11-11T16:22:31;98283.03;;;10.73;83.57
25130;BME280;13308;50.860;13.664;2022-11-11T16:25:20;98278.72;;;10.72;82.90
25130;BME280;13308;50.860;13.664;2022-11-11T16:28:05;98282.25;;;10.73;82.87
25130;BME280;13308;50.860;13.664;2022-11-11T16:30:49;98283.34;;;10.61;84.30
25130;BME280;13308;50.860;13.664;2022-11-11T16:33:33;98287.25;;;10.53;85.10
25130;BME280;13308;50.860;13.664;2022-11-11T16:36:17;98280.50;;;10.47;85.17
25130;BME280;13308;50.860;13.664;2022-11-11T16:39:18;98288.34;;;10.45;85.48
25130;BME280;13308;50.860;13.664;2022-11-11T16:42:04;98289.06;;;10.35;86.06
25130;BME280;13308;50.860;13.664;2022-11-11T16:45:04;98292.97;;;10.34;84.99
25130;BME280;13308;50.860;13.664;2022-11-11T16:47:49;98292.16;;;10.30;84.67
25130;BME280;13308;50.860;13.664;2022-11-11T16:50:51;98282.31;;;10.29;84.42
25130;BME280;13308;50.860;13.664;2022-11-11T16:53:40;98287.03;;;10.32;82.65
25130;BME280;13308;50.860;13.664;2022-11-11T16:56:28;98277.94;;;10.28;82.67
25130;BME280;13308;50.860;13.664;2022-11-11T17:02:20;98289.34;;;10.23;83.83
25130;BME280;13308;50.860;13.664;2022-11-11T17:05:05;98295.19;;;10.18;84.59
25130;BME280;13308;50.860;13.664;2022-11-11T17:07:49;98294.69;;;10.09;85.52
25130;BME280;13308;50.860;13.664;2022-11-11T17:10:38;98291.81;;;9.99;85.57
25130;BME280;13308;50.860;13.664;2022-11-11T17:13:22;98294.53;;;9.95;85.44
25130;BME280;13308;50.860;13.664;2022-11-11T17:16:06;98286.25;;;9.92;85.55
25130;BME280;13308;50.860;13.664;2022-11-11T17:18:51;98285.03;;;9.89;85.36
25130;BME280;13308;50.860;13.664;2022-11-11T17:21:35;98293.94;;;9.76;86.92
25130;BME280;13308;50.860;13.664;2022-11-11T17:24:19;98298.19;;;9.70;86.70
25130;BME280;13308;50.860;13.664;2022-11-11T17:27:03;98295.78;;;9.65;86.20
25130;BME280;13308;50.860;13.664;2022-11-11T17:29:47;98292.28;;;9.68;85.89
25130;BME280;13308;50.860;13.664;2022-11-11T17:32:31;98296.25;;;9.70;85.61
25130;BME280;13308;50.860;13.664;2022-11-11T17:35:15;98305.22;;;9.64;85.66
25130;BME280;13308;50.860;13.664;2022-11-11T17:37:59;98303.28;;;9.68;84.82
